East Tawas, Michigan
Current Conditions -  °F | °C
As of 9:33 AM on Monday 20 Oct 2014 (Local Time) from KOSC Reporting Station
Haze Haze  
Wind Chill: 43°   Ceiling: 800
Heat Index: 47°   Visibility: 5mi
Dew Point: 46°   Wind: 7mph
Humidity: 97%   Direction: 230°SW
Pressure: 29.77"   Gusts: NA
Location:  44.28°N, 83.49°W
Report Text: KOSC 201333Z AUTO 23006KT 5SM BR OVC008 08/07 A2977 RMK AO2 T00810076
Loading
Personal Weather Stations






























Interactive Weather Map
Tropical Storm Tracking
New forecast layout! Learn more

10-Day Weather Forecast

Advertisements
Track Severe Weather on mobile